sensor_id;sensor_type;location;lat;lon;timestamp;P1;durP1;ratioP1;P2;durP2;ratioP2
19846;SDS011;10084;50.518;8.588;2023-04-10T00:01:34;3.30;;;3.00;;
19846;SDS011;10084;50.518;8.588;2023-04-10T00:04:01;3.73;;;3.17;;
19846;SDS011;10084;50.518;8.588;2023-04-10T00:06:27;3.07;;;2.77;;
19846;SDS011;10084;50.518;8.588;2023-04-10T00:08:53;3.33;;;3.10;;
19846;SDS011;10084;50.518;8.588;2023-04-10T00:11:18;2.63;;;2.50;;
19846;SDS011;10084;50.518;8.588;2023-04-10T00:13:44;2.67;;;2.47;;
19846;SDS011;10084;50.518;8.588;2023-04-10T00:16:10;3.63;;;3.33;;
19846;SDS011;10084;50.518;8.588;2023-04-10T00:18:36;3.20;;;2.90;;
19846;SDS011;10084;50.518;8.588;2023-04-10T00:21:02;2.90;;;2.70;;
19846;SDS011;10084;50.518;8.588;2023-04-10T00:23:28;5.90;;;3.50;;
19846;SDS011;10084;50.518;8.588;2023-04-10T00:25:56;3.07;;;2.60;;
19846;SDS011;10084;50.518;8.588;2023-04-10T00:28:21;3.67;;;3.37;;
19846;SDS011;10084;50.518;8.588;2023-04-10T00:30:47;3.33;;;3.03;;
19846;SDS011;10084;50.518;8.588;2023-04-10T00:33:13;3.10;;;2.80;;
19846;SDS011;10084;50.518;8.588;2023-04-10T00:35:39;3.70;;;2.97;;
19846;SDS011;10084;50.518;8.588;2023-04-10T00:38:05;3.17;;;2.87;;
19846;SDS011;10084;50.518;8.588;2023-04-10T00:40:36;2.80;;;2.33;;
19846;SDS011;10084;50.518;8.588;2023-04-10T00:43:05;3.97;;;2.70;;
19846;SDS011;10084;50.518;8.588;2023-04-10T00:45:37;2.83;;;2.63;;
19846;SDS011;10084;50.518;8.588;2023-04-10T00:48:03;2.80;;;2.60;;
19846;SDS011;10084;50.518;8.588;2023-04-10T00:50:30;3.23;;;2.80;;
19846;SDS011;10084;50.518;8.588;2023-04-10T00:53:09;4.30;;;2.63;;
19846;SDS011;10084;50.518;8.588;2023-04-10T00:55:38;2.97;;;2.77;;
19846;SDS011;10084;50.518;8.588;2023-04-10T00:58:09;7.10;;;2.87;;
19846;SDS011;10084;50.518;8.588;2023-04-10T01:00:39;5.40;;;2.10;;
19846;SDS011;10084;50.518;8.588;2023-04-10T01:03:19;2.73;;;2.53;;
19846;SDS011;10084;50.518;8.588;2023-04-10T01:06:07;2.20;;;2.00;;
19846;SDS011;10084;50.518;8.588;2023-04-10T01:08:38;2.50;;;2.30;;
19846;SDS011;10084;50.518;8.588;2023-04-10T01:11:09;4.47;;;2.73;;
19846;SDS011;10084;50.518;8.588;2023-04-10T01:13:47;3.37;;;3.00;;
19846;SDS011;10084;50.518;8.588;2023-04-10T01:16:19;2.33;;;2.13;;
19846;SDS011;10084;50.518;8.588;2023-04-10T01:18:52;2.53;;;2.20;;
19846;SDS011;10084;50.518;8.588;2023-04-10T01:21:22;2.50;;;2.30;;
19846;SDS011;10084;50.518;8.588;2023-04-10T01:29:16;3.17;;;2.90;;
19846;SDS011;10084;50.518;8.588;2023-04-10T01:32:10;3.37;;;2.57;;
19846;SDS011;10084;50.518;8.588;2023-04-10T01:34:43;3.47;;;2.47;;
19846;SDS011;10084;50.518;8.588;2023-04-10T01:40:07;3.63;;;2.90;;
19846;SDS011;10084;50.518;8.588;2023-04-10T01:42:43;3.40;;;3.10;;
19846;SDS011;10084;50.518;8.588;2023-04-10T01:45:26;3.13;;;2.83;;
19846;SDS011;10084;50.518;8.588;2023-04-10T01:48:00;3.33;;;3.03;;
19846;SDS011;10084;50.518;8.588;2023-04-10T01:50:40;3.07;;;2.87;;
19846;SDS011;10084;50.518;8.588;2023-04-10T01:53:29;4.17;;;2.60;;
19846;SDS011;10084;50.518;8.588;2023-04-10T01:55:57;3.57;;;3.20;;
19846;SDS011;10084;50.518;8.588;2023-04-10T01:58:28;4.77;;;3.20;;
19846;SDS011;10084;50.518;8.588;2023-04-10T02:00:58;4.40;;;3.13;;
19846;SDS011;10084;50.518;8.588;2023-04-10T02:03:41;2.87;;;2.50;;
19846;SDS011;10084;50.518;8.588;2023-04-10T02:06:14;3.80;;;3.37;;
19846;SDS011;10084;50.518;8.588;2023-04-10T02:08:57;3.30;;;2.97;;
19846;SDS011;10084;50.518;8.588;2023-04-10T02:11:45;3.17;;;2.70;;
19846;SDS011;10084;50.518;8.588;2023-04-10T02:14:16;3.43;;;3.13;;
19846;SDS011;10084;50.518;8.588;2023-04-10T02:16:46;5.77;;;3.47;;
19846;SDS011;10084;50.518;8.588;2023-04-10T02:19:26;3.43;;;3.07;;
19846;SDS011;10084;50.518;8.588;2023-04-10T02:21:53;3.33;;;3.03;;
19846;SDS011;10084;50.518;8.588;2023-04-10T02:24:28;3.30;;;2.83;;
19846;SDS011;10084;50.518;8.588;2023-04-10T02:27:15;2.87;;;2.67;;
19846;SDS011;10084;50.518;8.588;2023-04-10T02:29:51;3.43;;;2.47;;
19846;SDS011;10084;50.518;8.588;2023-04-10T02:32:21;2.87;;;2.67;;
19846;SDS011;10084;50.518;8.588;2023-04-10T02:34:51;2.43;;;2.23;;
19846;SDS011;10084;50.518;8.588;2023-04-10T02:37:21;2.37;;;2.20;;
19846;SDS011;10084;50.518;8.588;2023-04-10T02:39:49;2.90;;;2.63;;
19846;SDS011;10084;50.518;8.588;2023-04-10T02:42:16;2.80;;;2.53;;
19846;SDS011;10084;50.518;8.588;2023-04-10T02:44:44;2.63;;;2.43;;
19846;SDS011;10084;50.518;8.588;2023-04-10T02:47:12;2.83;;;2.60;;
19846;SDS011;10084;50.518;8.588;2023-04-10T02:49:43;3.87;;;2.90;;
19846;SDS011;10084;50.518;8.588;2023-04-10T02:52:14;3.37;;;3.07;;
19846;SDS011;10084;50.518;8.588;2023-04-10T02:54:43;2.70;;;2.30;;
19846;SDS011;10084;50.518;8.588;2023-04-10T02:57:12;5.17;;;2.47;;
19846;SDS011;10084;50.518;8.588;2023-04-10T02:59:42;3.10;;;2.80;;
19846;SDS011;10084;50.518;8.588;2023-04-10T03:02:11;2.80;;;2.60;;
19846;SDS011;10084;50.518;8.588;2023-04-10T03:04:43;3.13;;;2.87;;
19846;SDS011;10084;50.518;8.588;2023-04-10T03:07:27;2.90;;;2.70;;
19846;SDS011;10084;50.518;8.588;2023-04-10T03:10:10;3.40;;;3.10;;
19846;SDS011;10084;50.518;8.588;2023-04-10T03:12:36;3.10;;;2.80;;
19846;SDS011;10084;50.518;8.588;2023-04-10T03:15:45;3.60;;;2.80;;
19846;SDS011;10084;50.518;8.588;2023-04-10T03:18:27;3.57;;;2.60;;
19846;SDS011;10084;50.518;8.588;2023-04-10T03:20:54;3.10;;;2.80;;
19846;SDS011;10084;50.518;8.588;2023-04-10T03:23:36;2.70;;;2.50;;
19846;SDS011;10084;50.518;8.588;2023-04-10T03:26:45;2.73;;;2.27;;
19846;SDS011;10084;50.518;8.588;2023-04-10T03:29:21;2.60;;;2.40;;
19846;SDS011;10084;50.518;8.588;2023-04-10T03:32:16;2.67;;;2.43;;
19846;SDS011;10084;50.518;8.588;2023-04-10T03:35:10;4.30;;;2.37;;
19846;SDS011;10084;50.518;8.588;2023-04-10T03:37:50;2.50;;;2.30;;
19846;SDS011;10084;50.518;8.588;2023-04-10T03:40:30;2.63;;;2.43;;
19846;SDS011;10084;50.518;8.588;2023-04-10T03:43:12;2.60;;;2.37;;
19846;SDS011;10084;50.518;8.588;2023-04-10T03:45:41;2.77;;;2.50;;
19846;SDS011;10084;50.518;8.588;2023-04-10T03:48:19;3.03;;;2.83;;
19846;SDS011;10084;50.518;8.588;2023-04-10T03:50:53;3.67;;;2.80;;
19846;SDS011;10084;50.518;8.588;2023-04-10T03:53:22;2.37;;;2.17;;
19846;SDS011;10084;50.518;8.588;2023-04-10T03:55:53;3.30;;;3.07;;
19846;SDS011;10084;50.518;8.588;2023-04-10T03:58:23;3.17;;;2.87;;
19846;SDS011;10084;50.518;8.588;2023-04-10T04:00:54;2.73;;;2.43;;
19846;SDS011;10084;50.518;8.588;2023-04-10T04:03:32;2.40;;;2.20;;
19846;SDS011;10084;50.518;8.588;2023-04-10T04:06:22;3.10;;;2.77;;
19846;SDS011;10084;50.518;8.588;2023-04-10T04:09:20;3.30;;;3.07;;
19846;SDS011;10084;50.518;8.588;2023-04-10T04:12:20;2.90;;;2.70;;
19846;SDS011;10084;50.518;8.588;2023-04-10T04:15:06;3.83;;;2.90;;
19846;SDS011;10084;50.518;8.588;2023-04-10T04:17:57;6.43;;;3.77;;
19846;SDS011;10084;50.518;8.588;2023-04-10T04:20:40;3.77;;;2.97;;
19846;SDS011;10084;50.518;8.588;2023-04-10T04:23:37;3.53;;;2.90;;
19846;SDS011;10084;50.518;8.588;2023-04-10T04:26:29;3.50;;;3.20;;
19846;SDS011;10084;50.518;8.588;2023-04-10T04:29:13;4.03;;;3.73;;
19846;SDS011;10084;50.518;8.588;2023-04-10T04:32:00;4.40;;;3.27;;
19846;SDS011;10084;50.518;8.588;2023-04-10T04:34:56;2.77;;;2.57;;
19846;SDS011;10084;50.518;8.588;2023-04-10T04:37:56;4.00;;;3.27;;
19846;SDS011;10084;50.518;8.588;2023-04-10T04:40:52;5.23;;;4.73;;
19846;SDS011;10084;50.518;8.588;2023-04-10T04:43:42;6.40;;;4.80;;
19846;SDS011;10084;50.518;8.588;2023-04-10T04:47:02;5.33;;;4.43;;
19846;SDS011;10084;50.518;8.588;2023-04-10T04:49:58;3.97;;;3.67;;
19846;SDS011;10084;50.518;8.588;2023-04-10T04:52:43;5.13;;;3.97;;
19846;SDS011;10084;50.518;8.588;2023-04-10T04:55:19;4.23;;;3.83;;
19846;SDS011;10084;50.518;8.588;2023-04-10T04:57:55;3.97;;;3.57;;
19846;SDS011;10084;50.518;8.588;2023-04-10T05:00:38;3.87;;;3.37;;
19846;SDS011;10084;50.518;8.588;2023-04-10T05:03:25;4.60;;;4.17;;
19846;SDS011;10084;50.518;8.588;2023-04-10T05:06:13;5.33;;;3.87;;
19846;SDS011;10084;50.518;8.588;2023-04-10T05:08:58;3.93;;;3.63;;
19846;SDS011;10084;50.518;8.588;2023-04-10T05:11:40;4.70;;;3.73;;
19846;SDS011;10084;50.518;8.588;2023-04-10T05:14:32;8.10;;;3.27;;
19846;SDS011;10084;50.518;8.588;2023-04-10T05:17:18;3.80;;;3.50;;
19846;SDS011;10084;50.518;8.588;2023-04-10T05:19:54;5.27;;;4.10;;
19846;SDS011;10084;50.518;8.588;2023-04-10T05:22:40;4.87;;;4.47;;
19846;SDS011;10084;50.518;8.588;2023-04-10T05:25:32;4.63;;;4.23;;
19846;SDS011;10084;50.518;8.588;2023-04-10T05:28:08;4.17;;;3.60;;
19846;SDS011;10084;50.518;8.588;2023-04-10T05:30:52;4.47;;;4.07;;
19846;SDS011;10084;50.518;8.588;2023-04-10T05:33:41;4.27;;;3.87;;
19846;SDS011;10084;50.518;8.588;2023-04-10T05:36:28;5.10;;;4.30;;
19846;SDS011;10084;50.518;8.588;2023-04-10T05:39:20;4.80;;;4.40;;
19846;SDS011;10084;50.518;8.588;2023-04-10T05:41:55;4.57;;;4.17;;
19846;SDS011;10084;50.518;8.588;2023-04-10T05:44:29;3.43;;;3.10;;
19846;SDS011;10084;50.518;8.588;2023-04-10T05:47:14;4.17;;;3.77;;
19846;SDS011;10084;50.518;8.588;2023-04-10T05:50:05;4.67;;;3.70;;
19846;SDS011;10084;50.518;8.588;2023-04-10T05:52:46;4.13;;;3.83;;
19846;SDS011;10084;50.518;8.588;2023-04-10T05:55:32;4.33;;;3.70;;
19846;SDS011;10084;50.518;8.588;2023-04-10T05:58:20;4.93;;;4.40;;
19846;SDS011;10084;50.518;8.588;2023-04-10T06:01:05;4.83;;;4.07;;
19846;SDS011;10084;50.518;8.588;2023-04-10T06:03:41;4.90;;;4.50;;
19846;SDS011;10084;50.518;8.588;2023-04-10T06:06:07;4.43;;;4.10;;
19846;SDS011;10084;50.518;8.588;2023-04-10T06:08:32;8.13;;;4.77;;
19846;SDS011;10084;50.518;8.588;2023-04-10T06:11:01;5.20;;;4.70;;
19846;SDS011;10084;50.518;8.588;2023-04-10T06:13:29;5.17;;;4.77;;
19846;SDS011;10084;50.518;8.588;2023-04-10T06:15:57;6.77;;;4.70;;
19846;SDS011;10084;50.518;8.588;2023-04-10T06:18:23;5.40;;;4.90;;
19846;SDS011;10084;50.518;8.588;2023-04-10T06:20:49;6.60;;;6.00;;
19846;SDS011;10084;50.518;8.588;2023-04-10T06:23:15;5.57;;;5.07;;
19846;SDS011;10084;50.518;8.588;2023-04-10T06:25:42;4.70;;;4.30;;
19846;SDS011;10084;50.518;8.588;2023-04-10T06:28:07;4.93;;;4.53;;
19846;SDS011;10084;50.518;8.588;2023-04-10T06:30:33;5.70;;;4.60;;
19846;SDS011;10084;50.518;8.588;2023-04-10T06:33:03;5.97;;;5.10;;
19846;SDS011;10084;50.518;8.588;2023-04-10T06:35:32;5.40;;;5.00;;
19846;SDS011;10084;50.518;8.588;2023-04-10T06:37:58;5.20;;;4.80;;
19846;SDS011;10084;50.518;8.588;2023-04-10T06:40:24;5.10;;;4.60;;
19846;SDS011;10084;50.518;8.588;2023-04-10T06:42:50;4.90;;;4.50;;
19846;SDS011;10084;50.518;8.588;2023-04-10T06:45:28;5.30;;;4.63;;
19846;SDS011;10084;50.518;8.588;2023-04-10T06:47:54;5.10;;;4.70;;
19846;SDS011;10084;50.518;8.588;2023-04-10T06:50:19;5.20;;;4.80;;
19846;SDS011;10084;50.518;8.588;2023-04-10T06:52:46;5.80;;;5.20;;
19846;SDS011;10084;50.518;8.588;2023-04-10T06:55:12;4.73;;;4.43;;
19846;SDS011;10084;50.518;8.588;2023-04-10T06:57:38;5.30;;;4.90;;
19846;SDS011;10084;50.518;8.588;2023-04-10T07:00:04;5.10;;;4.70;;
19846;SDS011;10084;50.518;8.588;2023-04-10T07:02:31;5.50;;;5.00;;
19846;SDS011;10084;50.518;8.588;2023-04-10T07:04:56;7.77;;;5.23;;
19846;SDS011;10084;50.518;8.588;2023-04-10T07:07:22;5.73;;;5.23;;
19846;SDS011;10084;50.518;8.588;2023-04-10T07:09:48;5.50;;;5.00;;
19846;SDS011;10084;50.518;8.588;2023-04-10T07:12:13;5.40;;;4.90;;
19846;SDS011;10084;50.518;8.588;2023-04-10T07:14:40;5.47;;;5.07;;
19846;SDS011;10084;50.518;8.588;2023-04-10T07:17:06;5.47;;;5.07;;
19846;SDS011;10084;50.518;8.588;2023-04-10T07:19:32;5.87;;;5.37;;
19846;SDS011;10084;50.518;8.588;2023-04-10T07:21:58;5.40;;;5.00;;
19846;SDS011;10084;50.518;8.588;2023-04-10T07:24:24;5.80;;;5.23;;
19846;SDS011;10084;50.518;8.588;2023-04-10T07:26:52;6.00;;;5.53;;
19846;SDS011;10084;50.518;8.588;2023-04-10T07:29:17;5.97;;;5.20;;
19846;SDS011;10084;50.518;8.588;2023-04-10T07:31:44;7.93;;;5.67;;
19846;SDS011;10084;50.518;8.588;2023-04-10T07:34:10;5.97;;;5.47;;
19846;SDS011;10084;50.518;8.588;2023-04-10T07:36:36;7.00;;;6.40;;
19846;SDS011;10084;50.518;8.588;2023-04-10T07:39:02;6.57;;;6.10;;
19846;SDS011;10084;50.518;8.588;2023-04-10T07:41:28;6.47;;;5.93;;
19846;SDS011;10084;50.518;8.588;2023-04-10T07:43:53;5.87;;;5.47;;
19846;SDS011;10084;50.518;8.588;2023-04-10T07:46:19;6.00;;;5.60;;
19846;SDS011;10084;50.518;8.588;2023-04-10T07:48:45;7.30;;;5.23;;
19846;SDS011;10084;50.518;8.588;2023-04-10T07:51:14;6.43;;;5.93;;
19846;SDS011;10084;50.518;8.588;2023-04-10T07:53:40;6.13;;;5.63;;
19846;SDS011;10084;50.518;8.588;2023-04-10T07:56:06;5.53;;;5.13;;
19846;SDS011;10084;50.518;8.588;2023-04-10T07:58:32;5.23;;;4.90;;
19846;SDS011;10084;50.518;8.588;2023-04-10T08:00:58;6.20;;;5.70;;
19846;SDS011;10084;50.518;8.588;2023-04-10T08:03:24;5.83;;;5.33;;
19846;SDS011;10084;50.518;8.588;2023-04-10T08:05:50;7.20;;;6.07;;
19846;SDS011;10084;50.518;8.588;2023-04-10T08:08:16;6.40;;;5.90;;
19846;SDS011;10084;50.518;8.588;2023-04-10T08:10:42;6.63;;;6.13;;
19846;SDS011;10084;50.518;8.588;2023-04-10T08:13:07;6.67;;;6.07;;
19846;SDS011;10084;50.518;8.588;2023-04-10T08:15:33;5.17;;;4.77;;
19846;SDS011;10084;50.518;8.588;2023-04-10T08:17:59;5.53;;;5.03;;
19846;SDS011;10084;50.518;8.588;2023-04-10T08:20:25;6.27;;;5.87;;
19846;SDS011;10084;50.518;8.588;2023-04-10T08:22:52;8.80;;;5.07;;
19846;SDS011;10084;50.518;8.588;2023-04-10T08:25:18;6.60;;;6.10;;
19846;SDS011;10084;50.518;8.588;2023-04-10T08:27:44;6.27;;;5.73;;
19846;SDS011;10084;50.518;8.588;2023-04-10T08:30:10;6.27;;;5.77;;
19846;SDS011;10084;50.518;8.588;2023-04-10T08:32:37;8.20;;;5.97;;
19846;SDS011;10084;50.518;8.588;2023-04-10T08:35:03;6.73;;;6.07;;
19846;SDS011;10084;50.518;8.588;2023-04-10T08:37:29;5.87;;;5.37;;
19846;SDS011;10084;50.518;8.588;2023-04-10T08:39:54;5.63;;;5.23;;
19846;SDS011;10084;50.518;8.588;2023-04-10T08:42:20;6.03;;;5.63;;
19846;SDS011;10084;50.518;8.588;2023-04-10T08:44:47;5.70;;;5.33;;
19846;SDS011;10084;50.518;8.588;2023-04-10T08:47:13;5.53;;;5.03;;
19846;SDS011;10084;50.518;8.588;2023-04-10T08:49:52;5.60;;;5.17;;
19846;SDS011;10084;50.518;8.588;2023-04-10T08:52:20;5.60;;;5.20;;
19846;SDS011;10084;50.518;8.588;2023-04-10T08:54:49;6.10;;;5.67;;
19846;SDS011;10084;50.518;8.588;2023-04-10T08:57:18;6.43;;;6.00;;
19846;SDS011;10084;50.518;8.588;2023-04-10T08:59:46;5.93;;;5.53;;
19846;SDS011;10084;50.518;8.588;2023-04-10T09:02:13;6.90;;;6.30;;
19846;SDS011;10084;50.518;8.588;2023-04-10T09:04:40;5.50;;;5.10;;
19846;SDS011;10084;50.518;8.588;2023-04-10T09:07:12;6.47;;;5.97;;
19846;SDS011;10084;50.518;8.588;2023-04-10T09:09:38;6.40;;;5.27;;
19846;SDS011;10084;50.518;8.588;2023-04-10T09:12:04;6.50;;;6.03;;
19846;SDS011;10084;50.518;8.588;2023-04-10T09:14:31;5.73;;;5.33;;
19846;SDS011;10084;50.518;8.588;2023-04-10T09:19:47;5.67;;;5.37;;
19846;SDS011;10084;50.518;8.588;2023-04-10T09:22:14;6.00;;;5.60;;
19846;SDS011;10084;50.518;8.588;2023-04-10T09:24:41;6.47;;;6.00;;
19846;SDS011;10084;50.518;8.588;2023-04-10T09:27:09;6.17;;;5.77;;
19846;SDS011;10084;50.518;8.588;2023-04-10T09:29:39;6.03;;;5.47;;
19846;SDS011;10084;50.518;8.588;2023-04-10T09:32:11;7.07;;;6.47;;
19846;SDS011;10084;50.518;8.588;2023-04-10T09:34:50;6.10;;;5.67;;
19846;SDS011;10084;50.518;8.588;2023-04-10T09:37:18;6.03;;;5.57;;
19846;SDS011;10084;50.518;8.588;2023-04-10T09:39:45;6.53;;;6.03;;
19846;SDS011;10084;50.518;8.588;2023-04-10T09:42:11;6.40;;;5.80;;
19846;SDS011;10084;50.518;8.588;2023-04-10T09:44:38;7.40;;;5.97;;
19846;SDS011;10084;50.518;8.588;2023-04-10T09:47:18;4.80;;;4.50;;
19846;SDS011;10084;50.518;8.588;2023-04-10T09:49:49;5.27;;;4.77;;
19846;SDS011;10084;50.518;8.588;2023-04-10T09:52:21;6.20;;;5.70;;
19846;SDS011;10084;50.518;8.588;2023-04-10T09:54:49;6.37;;;5.90;;
19846;SDS011;10084;50.518;8.588;2023-04-10T09:57:17;6.20;;;5.60;;
19846;SDS011;10084;50.518;8.588;2023-04-10T09:59:51;6.10;;;5.63;;
19846;SDS011;10084;50.518;8.588;2023-04-10T10:02:18;5.80;;;5.33;;
19846;SDS011;10084;50.518;8.588;2023-04-10T10:04:45;5.23;;;4.87;;
19846;SDS011;10084;50.518;8.588;2023-04-10T10:07:16;5.33;;;4.93;;
19846;SDS011;10084;50.518;8.588;2023-04-10T10:09:44;5.80;;;5.30;;
19846;SDS011;10084;50.518;8.588;2023-04-10T10:12:11;5.03;;;4.63;;
19846;SDS011;10084;50.518;8.588;2023-04-10T10:17:23;5.40;;;5.00;;
19846;SDS011;10084;50.518;8.588;2023-04-10T10:20:04;5.27;;;4.87;;
19846;SDS011;10084;50.518;8.588;2023-04-10T10:22:33;4.87;;;4.57;;
19846;SDS011;10084;50.518;8.588;2023-04-10T10:25:01;4.77;;;4.47;;
19846;SDS011;10084;50.518;8.588;2023-04-10T10:27:27;5.60;;;5.20;;
19846;SDS011;10084;50.518;8.588;2023-04-10T10:29:57;5.27;;;4.97;;
19846;SDS011;10084;50.518;8.588;2023-04-10T10:32:25;4.03;;;3.73;;
19846;SDS011;10084;50.518;8.588;2023-04-10T10:34:52;5.30;;;4.00;;
19846;SDS011;10084;50.518;8.588;2023-04-10T10:37:21;3.50;;;3.30;;
19846;SDS011;10084;50.518;8.588;2023-04-10T10:40:08;3.87;;;3.57;;
19846;SDS011;10084;50.518;8.588;2023-04-10T10:45:18;3.83;;;3.53;;
19846;SDS011;10084;50.518;8.588;2023-04-10T10:47:52;3.27;;;3.00;;
19846;SDS011;10084;50.518;8.588;2023-04-10T10:50:18;3.00;;;2.80;;
19846;SDS011;10084;50.518;8.588;2023-04-10T10:52:46;2.93;;;2.73;;
19846;SDS011;10084;50.518;8.588;2023-04-10T10:57:49;2.03;;;1.93;;
19846;SDS011;10084;50.518;8.588;2023-04-10T11:00:20;4.30;;;2.63;;
19846;SDS011;10084;50.518;8.588;2023-04-10T11:11:03;2.00;;;1.90;;
19846;SDS011;10084;50.518;8.588;2023-04-10T11:13:33;1.87;;;1.73;;
19846;SDS011;10084;50.518;8.588;2023-04-10T11:16:00;2.50;;;2.30;;
19846;SDS011;10084;50.518;8.588;2023-04-10T11:23:37;2.63;;;2.43;;
19846;SDS011;10084;50.518;8.588;2023-04-10T11:31:43;1.93;;;1.83;;
19846;SDS011;10084;50.518;8.588;2023-04-10T11:34:09;3.00;;;2.80;;
19846;SDS011;10084;50.518;8.588;2023-04-10T11:36:39;2.40;;;2.30;;
19846;SDS011;10084;50.518;8.588;2023-04-10T11:39:07;1.67;;;1.57;;
19846;SDS011;10084;50.518;8.588;2023-04-10T11:44:11;2.60;;;2.40;;
19846;SDS011;10084;50.518;8.588;2023-04-10T11:46:39;2.13;;;2.03;;
19846;SDS011;10084;50.518;8.588;2023-04-10T11:49:06;1.90;;;1.80;;
19846;SDS011;10084;50.518;8.588;2023-04-10T11:51:34;2.43;;;2.23;;
19846;SDS011;10084;50.518;8.588;2023-04-10T11:54:08;1.90;;;1.80;;
19846;SDS011;10084;50.518;8.588;2023-04-10T11:56:36;2.77;;;2.50;;
19846;SDS011;10084;50.518;8.588;2023-04-10T11:59:02;1.87;;;1.70;;
19846;SDS011;10084;50.518;8.588;2023-04-10T12:01:33;2.40;;;2.20;;
19846;SDS011;10084;50.518;8.588;2023-04-10T12:03:59;2.50;;;2.30;;
19846;SDS011;10084;50.518;8.588;2023-04-10T12:06:26;2.00;;;1.90;;
19846;SDS011;10084;50.518;8.588;2023-04-10T12:08:51;2.47;;;2.27;;
19846;SDS011;10084;50.518;8.588;2023-04-10T12:11:24;2.57;;;2.37;;
19846;SDS011;10084;50.518;8.588;2023-04-10T12:13:51;2.50;;;2.30;;
19846;SDS011;10084;50.518;8.588;2023-04-10T12:16:18;2.87;;;2.57;;
19846;SDS011;10084;50.518;8.588;2023-04-10T12:18:44;2.50;;;2.30;;
19846;SDS011;10084;50.518;8.588;2023-04-10T12:21:10;2.90;;;2.63;;
19846;SDS011;10084;50.518;8.588;2023-04-10T12:23:36;3.10;;;2.90;;
19846;SDS011;10084;50.518;8.588;2023-04-10T12:26:16;2.87;;;2.67;;
19846;SDS011;10084;50.518;8.588;2023-04-10T12:28:52;2.30;;;2.17;;
19846;SDS011;10084;50.518;8.588;2023-04-10T12:31:29;2.83;;;2.63;;
19846;SDS011;10084;50.518;8.588;2023-04-10T12:33:58;2.37;;;2.23;;
19846;SDS011;10084;50.518;8.588;2023-04-10T12:36:25;2.47;;;2.27;;
19846;SDS011;10084;50.518;8.588;2023-04-10T12:38:54;3.60;;;2.70;;
19846;SDS011;10084;50.518;8.588;2023-04-10T12:41:24;2.73;;;2.53;;
19846;SDS011;10084;50.518;8.588;2023-04-10T12:43:52;2.40;;;2.27;;
19846;SDS011;10084;50.518;8.588;2023-04-10T12:46:30;3.33;;;3.03;;
19846;SDS011;10084;50.518;8.588;2023-04-10T12:48:56;3.57;;;3.30;;
19846;SDS011;10084;50.518;8.588;2023-04-10T12:57:10;3.53;;;3.33;;
19846;SDS011;10084;50.518;8.588;2023-04-10T12:59:51;2.50;;;2.30;;
19846;SDS011;10084;50.518;8.588;2023-04-10T13:02:17;2.93;;;2.73;;
19846;SDS011;10084;50.518;8.588;2023-04-10T13:04:45;3.10;;;2.70;;
19846;SDS011;10084;50.518;8.588;2023-04-10T13:07:10;3.60;;;2.17;;
19846;SDS011;10084;50.518;8.588;2023-04-10T13:09:36;2.53;;;2.33;;
19846;SDS011;10084;50.518;8.588;2023-04-10T13:12:02;2.40;;;2.20;;
19846;SDS011;10084;50.518;8.588;2023-04-10T13:14:30;2.73;;;2.53;;
19846;SDS011;10084;50.518;8.588;2023-04-10T13:16:57;2.50;;;2.30;;
19846;SDS011;10084;50.518;8.588;2023-04-10T13:19:22;2.43;;;2.23;;
19846;SDS011;10084;50.518;8.588;2023-04-10T13:21:48;2.60;;;2.40;;
19846;SDS011;10084;50.518;8.588;2023-04-10T13:24:15;2.57;;;2.37;;
19846;SDS011;10084;50.518;8.588;2023-04-10T13:26:41;2.60;;;2.40;;
19846;SDS011;10084;50.518;8.588;2023-04-10T13:29:06;2.37;;;2.17;;
19846;SDS011;10084;50.518;8.588;2023-04-10T13:31:32;2.23;;;2.13;;
19846;SDS011;10084;50.518;8.588;2023-04-10T13:33:58;2.80;;;2.47;;
19846;SDS011;10084;50.518;8.588;2023-04-10T13:36:23;1.83;;;1.73;;
19846;SDS011;10084;50.518;8.588;2023-04-10T13:38:50;5.23;;;1.80;;
19846;SDS011;10084;50.518;8.588;2023-04-10T13:41:16;2.27;;;2.07;;
19846;SDS011;10084;50.518;8.588;2023-04-10T13:43:41;1.73;;;1.63;;
19846;SDS011;10084;50.518;8.588;2023-04-10T13:46:07;1.60;;;1.50;;
19846;SDS011;10084;50.518;8.588;2023-04-10T13:48:33;2.07;;;1.87;;
19846;SDS011;10084;50.518;8.588;2023-04-10T13:50:59;2.07;;;1.60;;
19846;SDS011;10084;50.518;8.588;2023-04-10T13:53:25;2.13;;;2.03;;
19846;SDS011;10084;50.518;8.588;2023-04-10T13:55:51;1.70;;;1.60;;
19846;SDS011;10084;50.518;8.588;2023-04-10T13:58:16;1.60;;;1.50;;
19846;SDS011;10084;50.518;8.588;2023-04-10T14:00:42;3.17;;;1.57;;
19846;SDS011;10084;50.518;8.588;2023-04-10T14:03:09;1.97;;;1.87;;
19846;SDS011;10084;50.518;8.588;2023-04-10T14:05:37;1.50;;;1.40;;
19846;SDS011;10084;50.518;8.588;2023-04-10T14:08:03;1.13;;;1.03;;
19846;SDS011;10084;50.518;8.588;2023-04-10T14:10:29;1.70;;;1.50;;
19846;SDS011;10084;50.518;8.588;2023-04-10T14:12:55;1.67;;;1.40;;
19846;SDS011;10084;50.518;8.588;2023-04-10T14:15:21;2.30;;;1.33;;
19846;SDS011;10084;50.518;8.588;2023-04-10T14:17:47;1.20;;;1.10;;
19846;SDS011;10084;50.518;8.588;2023-04-10T14:20:12;4.60;;;1.20;;
19846;SDS011;10084;50.518;8.588;2023-04-10T14:22:38;1.77;;;1.67;;
19846;SDS011;10084;50.518;8.588;2023-04-10T14:25:04;2.03;;;1.40;;
19846;SDS011;10084;50.518;8.588;2023-04-10T14:27:30;1.40;;;1.30;;
19846;SDS011;10084;50.518;8.588;2023-04-10T14:29:57;1.70;;;1.60;;
19846;SDS011;10084;50.518;8.588;2023-04-10T14:32:23;0.93;;;0.90;;
19846;SDS011;10084;50.518;8.588;2023-04-10T14:34:48;1.13;;;1.03;;
19846;SDS011;10084;50.518;8.588;2023-04-10T14:37:14;0.60;;;0.60;;
19846;SDS011;10084;50.518;8.588;2023-04-10T14:39:40;0.80;;;0.70;;
19846;SDS011;10084;50.518;8.588;2023-04-10T14:42:06;1.93;;;1.10;;
19846;SDS011;10084;50.518;8.588;2023-04-10T14:44:31;0.93;;;0.90;;
19846;SDS011;10084;50.518;8.588;2023-04-10T14:46:57;1.10;;;1.10;;
19846;SDS011;10084;50.518;8.588;2023-04-10T14:49:22;0.67;;;0.50;;
19846;SDS011;10084;50.518;8.588;2023-04-10T14:51:48;0.70;;;0.60;;
19846;SDS011;10084;50.518;8.588;2023-04-10T14:54:14;0.73;;;0.60;;
19846;SDS011;10084;50.518;8.588;2023-04-10T14:56:46;0.70;;;0.60;;
19846;SDS011;10084;50.518;8.588;2023-04-10T14:59:13;0.77;;;0.60;;
19846;SDS011;10084;50.518;8.588;2023-04-10T15:01:40;0.70;;;0.70;;
19846;SDS011;10084;50.518;8.588;2023-04-10T15:04:06;1.33;;;0.90;;
19846;SDS011;10084;50.518;8.588;2023-04-10T15:06:32;0.63;;;0.60;;
19846;SDS011;10084;50.518;8.588;2023-04-10T15:08:58;0.70;;;0.70;;
19846;SDS011;10084;50.518;8.588;2023-04-10T15:11:24;2.20;;;0.53;;
19846;SDS011;10084;50.518;8.588;2023-04-10T15:13:49;1.00;;;0.90;;
19846;SDS011;10084;50.518;8.588;2023-04-10T15:16:16;1.20;;;0.90;;
19846;SDS011;10084;50.518;8.588;2023-04-10T15:18:41;0.87;;;0.87;;
19846;SDS011;10084;50.518;8.588;2023-04-10T15:21:08;0.70;;;0.70;;
19846;SDS011;10084;50.518;8.588;2023-04-10T15:23:33;1.03;;;0.83;;
19846;SDS011;10084;50.518;8.588;2023-04-10T15:25:59;1.00;;;0.90;;
19846;SDS011;10084;50.518;8.588;2023-04-10T15:28:25;0.80;;;0.80;;
19846;SDS011;10084;50.518;8.588;2023-04-10T15:30:52;1.07;;;0.90;;
19846;SDS011;10084;50.518;8.588;2023-04-10T15:33:17;0.77;;;0.77;;
19846;SDS011;10084;50.518;8.588;2023-04-10T15:35:48;0.97;;;0.80;;
19846;SDS011;10084;50.518;8.588;2023-04-10T15:38:14;0.60;;;0.60;;
19846;SDS011;10084;50.518;8.588;2023-04-10T15:40:40;3.23;;;0.80;;
19846;SDS011;10084;50.518;8.588;2023-04-10T15:43:06;0.77;;;0.70;;
19846;SDS011;10084;50.518;8.588;2023-04-10T15:45:31;0.50;;;0.50;;
19846;SDS011;10084;50.518;8.588;2023-04-10T15:47:59;1.13;;;1.00;;
19846;SDS011;10084;50.518;8.588;2023-04-10T15:50:26;1.67;;;0.57;;
19846;SDS011;10084;50.518;8.588;2023-04-10T15:52:52;1.10;;;1.00;;
19846;SDS011;10084;50.518;8.588;2023-04-10T15:55:17;0.60;;;0.60;;
19846;SDS011;10084;50.518;8.588;2023-04-10T15:57:43;1.17;;;1.07;;
19846;SDS011;10084;50.518;8.588;2023-04-10T16:00:10;0.43;;;0.43;;